createdAt,value
2023-04-18T00:00:29.206Z,10.20
2023-04-18T00:01:01.836Z,10.20
2023-04-18T00:01:33.699Z,10.20
2023-04-18T00:02:06.949Z,10.20
2023-04-18T00:02:39.791Z,10.20
2023-04-18T00:03:15.594Z,10.10
2023-04-18T00:03:51.094Z,10.10
2023-04-18T00:04:23.356Z,10.10
2023-04-18T00:04:56.392Z,10.10
2023-04-18T00:05:30.273Z,10.10
2023-04-18T00:06:02.198Z,10.10
2023-04-18T00:06:35.833Z,10.10
2023-04-18T00:07:08.712Z,10.10
2023-04-18T00:07:41.163Z,10.10
2023-04-18T00:08:13.522Z,10.10
2023-04-18T00:08:46.469Z,10.10
2023-04-18T00:09:18.330Z,10.10
2023-04-18T00:09:50.301Z,10.10
2023-04-18T00:10:23.211Z,10.20
2023-04-18T00:10:55.143Z,10.20
2023-04-18T00:11:27.313Z,10.20
2023-04-18T00:12:01.484Z,10.20
2023-04-18T00:12:34.180Z,10.20
2023-04-18T00:13:06.029Z,10.20
2023-04-18T00:13:39.312Z,10.20
2023-04-18T00:14:12.382Z,10.20
2023-04-18T00:14:44.451Z,10.30
2023-04-18T00:15:16.257Z,10.20
2023-04-18T00:15:49.004Z,10.30
2023-04-18T00:16:20.879Z,10.30
2023-04-18T00:16:54.094Z,10.30
2023-04-18T00:17:28.373Z,10.30
2023-04-18T00:18:00.692Z,10.30
2023-04-18T00:18:32.927Z,10.30
2023-04-18T00:19:08.632Z,10.30
2023-04-18T00:19:43.086Z,10.30
2023-04-18T00:20:15.888Z,10.20
2023-04-18T00:20:47.749Z,10.20
2023-04-18T00:21:19.653Z,10.20
2023-04-18T00:21:53.806Z,10.20
2023-04-18T00:22:25.805Z,10.20
2023-04-18T00:22:57.848Z,10.20
2023-04-18T00:23:30.239Z,10.20
2023-04-18T00:24:03.073Z,10.20
2023-04-18T00:24:34.946Z,10.20
2023-04-18T00:25:07.605Z,10.20
2023-04-18T00:25:40.427Z,10.20
2023-04-18T00:26:12.698Z,10.20
2023-04-18T00:26:44.526Z,10.20
2023-04-18T00:27:17.366Z,10.10
2023-04-18T00:27:49.274Z,10.20
2023-04-18T00:28:21.149Z,10.20
2023-04-18T00:28:54.018Z,10.20
2023-04-18T00:29:25.826Z,10.20
2023-04-18T00:29:57.632Z,10.20
2023-04-18T00:30:30.459Z,10.30
2023-04-18T00:31:02.264Z,10.30
2023-04-18T00:31:34.060Z,10.30
2023-04-18T00:32:07.219Z,10.30
2023-04-18T00:32:39.115Z,10.20
2023-04-18T00:33:10.984Z,10.20
2023-04-18T00:33:43.786Z,10.20
2023-04-18T00:34:16.949Z,10.20
2023-04-18T00:34:48.731Z,10.20
2023-04-18T00:35:21.525Z,10.20
2023-04-18T00:35:54.108Z,10.20
2023-04-18T00:36:26.984Z,10.20
2023-04-18T00:36:59.798Z,10.20
2023-04-18T00:37:31.644Z,10.10
2023-04-18T00:38:03.468Z,10.10
2023-04-18T00:38:36.538Z,10.00
2023-04-18T00:39:08.433Z,10.00
2023-04-18T00:39:40.271Z,10.00
2023-04-18T00:40:13.321Z,10.10
2023-04-18T00:40:45.091Z,10.10
2023-04-18T00:41:16.907Z,10.00
2023-04-18T00:41:48.716Z,10.00
2023-04-18T00:42:21.828Z,10.00
2023-04-18T00:42:53.954Z,10.00
2023-04-18T00:43:25.773Z,10.00
2023-04-18T00:43:58.662Z,10.00
2023-04-18T00:44:30.887Z,10.00
2023-04-18T00:45:02.822Z,10.00
2023-04-18T00:45:34.649Z,10.10
2023-04-18T00:46:07.672Z,10.10
2023-04-18T00:46:39.567Z,10.10
2023-04-18T00:47:11.520Z,10.10
2023-04-18T00:47:44.444Z,10.10
2023-04-18T00:48:17.114Z,10.10
2023-04-18T00:48:49.603Z,10.10
2023-04-18T00:49:23.925Z,10.10
2023-04-18T00:49:55.997Z,10.10
2023-04-18T00:50:28.877Z,10.10
2023-04-18T00:51:00.978Z,10.10
2023-04-18T00:51:34.425Z,10.10
2023-04-18T00:52:07.369Z,10.20
2023-04-18T00:52:39.332Z,10.20
2023-04-18T00:53:11.315Z,10.20
2023-04-18T00:53:45.947Z,10.20
2023-04-18T00:54:18.719Z,10.10
2023-04-18T00:54:50.994Z,10.10
2023-04-18T00:55:23.866Z,10.10
2023-04-18T00:55:56.838Z,10.10
2023-04-18T00:56:29.306Z,10.10
2023-04-18T00:57:02.133Z,10.20
2023-04-18T00:57:35.936Z,10.20
2023-04-18T00:58:07.930Z,10.20
2023-04-18T00:58:40.517Z,10.20
2023-04-18T00:59:14.158Z,10.20
2023-04-18T00:59:46.649Z,10.20
2023-04-18T01:00:18.795Z,10.20
2023-04-18T01:00:52.006Z,10.20
2023-04-18T01:01:24.018Z,10.10
2023-04-18T01:01:55.956Z,10.10
2023-04-18T01:02:30.401Z,10.10
2023-04-18T01:03:02.691Z,10.10
2023-04-18T01:03:35.186Z,10.10
2023-04-18T01:04:08.875Z,10.10
2023-04-18T01:04:44.016Z,10.10
2023-04-18T01:05:15.986Z,10.10
2023-04-18T01:05:48.895Z,10.10
2023-04-18T01:06:21.390Z,10.10
2023-04-18T01:06:53.367Z,10.10
2023-04-18T01:07:26.440Z,10.10
2023-04-18T01:08:00.934Z,10.10
2023-04-18T01:08:33.074Z,10.10
2023-04-18T01:09:06.509Z,10.10
2023-04-18T01:09:38.414Z,10.10
2023-04-18T01:10:11.180Z,10.10
2023-04-18T01:10:44.041Z,10.10
2023-04-18T01:11:15.903Z,10.10
2023-04-18T01:11:47.720Z,10.10
2023-04-18T01:12:20.513Z,10.10
2023-04-18T01:13:11.049Z,10.10
2023-04-18T01:13:43.870Z,10.10
2023-04-18T01:14:15.840Z,10.00
2023-04-18T01:14:47.621Z,10.00
2023-04-18T01:15:20.389Z,10.00
2023-04-18T01:15:53.933Z,10.10
2023-04-18T01:16:27.043Z,10.00
2023-04-18T01:16:59.845Z,10.00
2023-04-18T01:17:34.477Z,10.00
2023-04-18T01:18:07.680Z,10.00
2023-04-18T01:18:40.829Z,10.00
2023-04-18T01:19:12.986Z,10.00
2023-04-18T01:19:46.687Z,10.00
2023-04-18T01:20:23.161Z,10.00
2023-04-18T01:20:56.892Z,10.00
2023-04-18T01:21:30.980Z,10.00
2023-04-18T01:22:03.738Z,10.00
2023-04-18T01:22:35.767Z,10.00
2023-04-18T01:23:07.793Z,10.00
2023-04-18T01:23:40.591Z,10.00
2023-04-18T01:24:15.615Z,10.00
2023-04-18T01:24:47.826Z,10.00
2023-04-18T01:25:19.704Z,10.00
2023-04-18T01:25:52.471Z,10.00
2023-04-18T01:26:24.371Z,10.00
2023-04-18T01:26:57.142Z,10.00
2023-04-18T01:27:29.154Z,10.00
2023-04-18T01:28:02.468Z,9.90
2023-04-18T01:28:36.837Z,10.00
2023-04-18T01:29:09.628Z,9.90
2023-04-18T01:29:41.472Z,9.90
2023-04-18T01:30:13.727Z,9.80
2023-04-18T01:30:46.648Z,9.80
2023-04-18T01:31:18.518Z,9.80
2023-04-18T01:31:50.591Z,9.80
2023-04-18T01:32:23.504Z,9.80
2023-04-18T01:32:55.491Z,9.80
2023-04-18T01:33:27.302Z,9.80
2023-04-18T01:33:59.071Z,9.80
2023-04-18T01:34:31.846Z,9.80
2023-04-18T01:35:04.323Z,9.80
2023-04-18T01:35:36.216Z,9.90
2023-04-18T01:36:09.173Z,9.80
2023-04-18T01:36:40.966Z,9.90
2023-04-18T01:37:12.788Z,9.90
2023-04-18T01:37:45.804Z,9.90
2023-04-18T01:38:17.601Z,9.90
2023-04-18T01:38:49.447Z,9.80
2023-04-18T01:39:23.698Z,9.80
2023-04-18T01:39:55.467Z,9.90
2023-04-18T01:40:27.443Z,9.90
2023-04-18T01:41:00.587Z,9.90
2023-04-18T01:41:32.840Z,9.90
2023-04-18T01:42:05.000Z,9.80
2023-04-18T01:42:37.769Z,9.80
2023-04-18T01:43:09.633Z,9.80
2023-04-18T01:43:41.415Z,9.80
2023-04-18T01:44:13.439Z,9.90
2023-04-18T01:44:46.382Z,9.90
2023-04-18T01:45:20.042Z,9.90
2023-04-18T01:45:51.833Z,9.90
2023-04-18T01:46:24.824Z,9.90
2023-04-18T01:46:56.714Z,9.90
2023-04-18T01:47:28.707Z,9.90
2023-04-18T01:48:01.573Z,9.90
2023-04-18T01:48:33.410Z,9.90
2023-04-18T01:49:05.728Z,9.90
2023-04-18T01:49:39.459Z,9.90
2023-04-18T01:50:11.764Z,9.90
2023-04-18T01:50:43.577Z,9.90
2023-04-18T01:51:16.395Z,9.80
2023-04-18T01:51:48.210Z,9.80
2023-04-18T01:52:20.055Z,9.80
2023-04-18T01:52:52.863Z,9.80
2023-04-18T01:53:25.488Z,9.80
2023-04-18T01:53:57.336Z,9.90
2023-04-18T01:54:31.457Z,9.90
2023-04-18T01:55:03.942Z,9.90
2023-04-18T01:55:35.819Z,9.90
2023-04-18T01:56:07.758Z,9.90
2023-04-18T01:56:40.506Z,9.90
2023-04-18T01:57:12.335Z,9.90
2023-04-18T01:57:44.416Z,9.90
2023-04-18T01:58:18.482Z,9.90
2023-04-18T01:58:51.261Z,9.90
2023-04-18T01:59:23.082Z,10.00
2023-04-18T01:59:54.994Z,10.00
2023-04-18T02:00:27.069Z,10.00
2023-04-18T02:00:59.917Z,10.00
2023-04-18T02:01:31.738Z,10.00
2023-04-18T02:02:03.750Z,9.90
2023-04-18T02:02:36.792Z,9.90
2023-04-18T02:03:08.742Z,9.90
2023-04-18T02:03:40.999Z,9.90
2023-04-18T02:04:14.089Z,9.90
2023-04-18T02:04:46.322Z,10.00
2023-04-18T02:05:18.215Z,10.00
2023-04-18T02:05:51.062Z,9.90
2023-04-18T02:06:22.836Z,9.90
2023-04-18T02:06:54.698Z,9.90
2023-04-18T02:07:27.643Z,9.90
2023-04-18T02:07:59.460Z,9.90
2023-04-18T02:08:32.965Z,9.90
2023-04-18T02:09:05.769Z,9.90
2023-04-18T02:09:38.897Z,10.00
2023-04-18T02:10:11.292Z,9.90
2023-04-18T02:10:44.224Z,9.90
2023-04-18T02:11:16.052Z,9.90
2023-04-18T02:11:47.863Z,9.80
2023-04-18T02:12:20.912Z,9.80
2023-04-18T02:12:52.770Z,9.80
2023-04-18T02:13:24.583Z,9.70
2023-04-18T02:13:59.409Z,9.80
2023-04-18T02:14:33.401Z,9.80
2023-04-18T02:15:06.569Z,9.80
2023-04-18T02:15:39.441Z,9.80
2023-04-18T02:16:12.537Z,9.90
2023-04-18T02:16:44.468Z,9.90
2023-04-18T02:17:17.280Z,9.80
2023-04-18T02:17:50.410Z,9.70
2023-04-18T02:18:24.672Z,9.70
2023-04-18T02:18:57.759Z,9.70
2023-04-18T02:19:30.024Z,9.60
2023-04-18T02:20:01.926Z,9.60
2023-04-18T02:20:34.814Z,9.60
2023-04-18T02:21:07.094Z,9.60
2023-04-18T02:21:38.880Z,9.60
2023-04-18T02:22:11.643Z,9.70
2023-04-18T02:22:43.965Z,9.70
2023-04-18T02:23:15.727Z,9.70
2023-04-18T02:23:48.476Z,9.60
2023-04-18T02:24:20.433Z,9.60
2023-04-18T02:24:53.564Z,9.60
2023-04-18T02:25:27.523Z,9.70
2023-04-18T02:25:59.419Z,9.70
2023-04-18T02:26:31.244Z,9.70
2023-04-18T02:27:04.232Z,9.70
2023-04-18T02:27:36.127Z,9.70
2023-04-18T02:28:07.981Z,9.70
2023-04-18T02:28:40.742Z,9.70
2023-04-18T02:29:12.573Z,9.70
2023-04-18T02:29:44.397Z,9.70
2023-04-18T02:30:17.283Z,9.60
2023-04-18T02:30:49.184Z,9.70
2023-04-18T02:31:21.010Z,9.70
2023-04-18T02:31:53.839Z,9.70
2023-04-18T02:32:25.933Z,9.60
2023-04-18T02:32:57.898Z,9.60
2023-04-18T02:33:30.791Z,9.60
2023-04-18T02:34:02.602Z,9.60
2023-04-18T02:34:34.467Z,9.60
2023-04-18T02:35:07.813Z,9.60
2023-04-18T02:35:40.560Z,9.60
2023-04-18T02:36:12.759Z,9.60
2023-04-18T02:36:45.747Z,9.60
2023-04-18T02:37:17.538Z,9.60
2023-04-18T02:37:49.642Z,9.60
2023-04-18T02:38:22.437Z,9.60
2023-04-18T02:38:54.918Z,9.60
2023-04-18T02:39:26.757Z,9.60
2023-04-18T02:40:00.885Z,9.60
2023-04-18T02:40:32.737Z,9.60
2023-04-18T02:41:05.881Z,9.60
2023-04-18T02:41:39.197Z,9.60
2023-04-18T02:42:10.988Z,9.60
2023-04-18T02:42:44.016Z,9.70
2023-04-18T02:43:15.943Z,9.70
2023-04-18T02:43:47.866Z,9.70
2023-04-18T02:44:20.699Z,9.70
2023-04-18T02:44:52.707Z,9.70
2023-04-18T02:45:24.529Z,9.70
2023-04-18T02:45:56.494Z,9.70
2023-04-18T02:46:29.516Z,9.70
2023-04-18T02:47:01.531Z,9.70
2023-04-18T02:47:43.514Z,9.70
2023-04-18T02:48:20.427Z,9.80
2023-04-18T02:48:52.311Z,9.80
2023-04-18T02:49:24.203Z,9.80
2023-04-18T02:49:57.032Z,9.80
2023-04-18T02:50:29.414Z,9.80
2023-04-18T02:51:03.595Z,9.80
2023-04-18T02:51:36.580Z,9.80
2023-04-18T02:52:08.515Z,9.80
2023-04-18T02:52:40.505Z,9.80
2023-04-18T02:53:13.318Z,9.80
2023-04-18T02:53:45.278Z,9.80
2023-04-18T02:54:18.156Z,9.80
2023-04-18T02:54:50.033Z,9.80
2023-04-18T02:55:24.337Z,9.80
2023-04-18T02:55:57.270Z,9.80
2023-04-18T02:56:29.124Z,9.80
2023-04-18T02:57:01.265Z,9.80
2023-04-18T02:57:34.080Z,9.80
2023-04-18T02:58:05.961Z,9.80
2023-04-18T02:58:37.817Z,9.80
2023-04-18T02:59:09.628Z,9.80
2023-04-18T02:59:42.464Z,9.80
2023-04-18T03:00:14.846Z,9.80
2023-04-18T03:00:46.656Z,9.80
2023-04-18T03:01:19.482Z,9.80
2023-04-18T03:01:51.311Z,9.70
2023-04-18T03:02:23.296Z,9.80
2023-04-18T03:02:56.358Z,9.70
2023-04-18T03:03:28.309Z,9.80
2023-04-18T03:04:00.195Z,9.80
2023-04-18T03:04:33.103Z,9.80
2023-04-18T03:05:06.674Z,9.80
2023-04-18T03:05:39.711Z,9.70
2023-04-18T03:06:12.468Z,9.70
2023-04-18T03:06:44.268Z,9.70
2023-04-18T03:07:16.077Z,9.70
2023-04-18T03:07:48.874Z,9.70
2023-04-18T03:08:20.698Z,9.70
2023-04-18T03:08:52.477Z,9.70
2023-04-18T03:09:25.353Z,9.70
2023-04-18T03:09:57.186Z,9.70
2023-04-18T03:10:31.097Z,9.70
2023-04-18T03:11:03.849Z,9.70
2023-04-18T03:11:35.672Z,9.60
2023-04-18T03:12:07.547Z,9.60
2023-04-18T03:12:40.336Z,9.60
2023-04-18T03:13:12.150Z,9.60
2023-04-18T03:13:43.928Z,9.60
2023-04-18T03:14:16.736Z,9.60
2023-04-18T03:14:48.514Z,9.60
2023-04-18T03:15:20.505Z,9.60
2023-04-18T03:15:52.689Z,9.60
2023-04-18T03:16:25.556Z,9.60
2023-04-18T03:16:57.517Z,9.60
2023-04-18T03:17:29.448Z,9.60
2023-04-18T03:18:02.283Z,9.60
2023-04-18T03:18:34.171Z,9.60
2023-04-18T03:19:05.991Z,9.60
2023-04-18T03:19:38.742Z,9.60
2023-04-18T03:20:12.114Z,9.60
2023-04-18T03:20:43.975Z,9.60
2023-04-18T03:21:16.783Z,9.50
2023-04-18T03:21:48.547Z,9.50
2023-04-18T03:22:20.469Z,9.50
2023-04-18T03:22:53.214Z,9.50
2023-04-18T03:23:25.021Z,9.50
2023-04-18T03:23:56.850Z,9.40
2023-04-18T03:24:29.655Z,9.40
2023-04-18T03:25:01.463Z,9.40
2023-04-18T03:25:34.655Z,9.40
2023-04-18T03:26:08.836Z,9.40
2023-04-18T03:26:40.686Z,9.40
2023-04-18T03:27:13.306Z,9.40
2023-04-18T03:27:46.049Z,9.40
2023-04-18T03:28:17.904Z,9.40
2023-04-18T03:28:49.853Z,9.40
2023-04-18T03:29:22.786Z,9.40
2023-04-18T03:29:54.691Z,9.40
2023-04-18T03:30:26.601Z,9.50
2023-04-18T03:31:00.400Z,9.50
2023-04-18T03:31:33.405Z,9.50
2023-04-18T03:32:05.665Z,9.50
2023-04-18T03:32:38.511Z,9.60
2023-04-18T03:33:10.462Z,9.60
2023-04-18T03:33:44.073Z,9.60
2023-04-18T03:34:16.879Z,9.60
2023-04-18T03:34:49.159Z,9.60
2023-04-18T03:35:21.070Z,9.60
2023-04-18T03:35:53.877Z,9.60
2023-04-18T03:36:28.595Z,9.60
2023-04-18T03:37:01.094Z,9.60
2023-04-18T03:37:32.957Z,9.50
2023-04-18T03:38:05.734Z,9.50
2023-04-18T03:38:39.592Z,9.50
2023-04-18T03:39:11.496Z,9.50
2023-04-18T03:39:44.455Z,9.50
2023-04-18T03:40:16.357Z,9.50
2023-04-18T03:40:49.632Z,9.50
2023-04-18T03:41:22.611Z,9.60
2023-04-18T03:41:54.517Z,9.50
2023-04-18T03:42:26.398Z,9.50
2023-04-18T03:43:00.663Z,9.50
2023-04-18T03:43:32.606Z,9.50
2023-04-18T03:44:04.819Z,9.50
2023-04-18T03:44:37.654Z,9.50
2023-04-18T03:45:10.508Z,9.50
2023-04-18T03:45:43.982Z,9.50
2023-04-18T03:46:16.902Z,9.50
2023-04-18T03:46:48.822Z,9.50
2023-04-18T03:47:21.135Z,9.50
2023-04-18T03:47:54.096Z,9.50
2023-04-18T03:48:25.958Z,9.50
2023-04-18T03:48:57.760Z,9.50
2023-04-18T03:49:30.548Z,9.50
2023-04-18T03:50:02.360Z,9.50
2023-04-18T03:50:34.215Z,9.50
2023-04-18T03:51:08.021Z,9.50
2023-04-18T03:51:47.206Z,9.50
2023-04-18T03:52:20.091Z,9.50
2023-04-18T03:52:53.297Z,9.50
2023-04-18T03:53:25.101Z,9.50
2023-04-18T03:53:56.961Z,9.60
2023-04-18T03:54:29.730Z,9.60
2023-04-18T03:55:01.589Z,9.60
2023-04-18T03:55:33.834Z,9.60
2023-04-18T03:56:08.141Z,9.60
2023-04-18T03:56:40.898Z,9.60
2023-04-18T03:57:12.743Z,9.60
2023-04-18T03:57:44.527Z,9.60
2023-04-18T03:58:17.967Z,9.60
2023-04-18T03:58:49.822Z,9.60
2023-04-18T03:59:21.708Z,9.60
2023-04-18T03:59:54.802Z,9.60
2023-04-18T04:00:26.771Z,9.60
2023-04-18T04:00:58.611Z,9.60
2023-04-18T04:01:31.526Z,9.60
2023-04-18T04:02:03.537Z,9.60
2023-04-18T04:02:35.523Z,9.60
2023-04-18T04:03:08.622Z,9.50
2023-04-18T04:03:40.658Z,9.40
2023-04-18T04:04:15.207Z,9.40
2023-04-18T04:04:48.351Z,9.40
2023-04-18T04:05:20.196Z,9.40
2023-04-18T04:05:52.021Z,9.50
2023-04-18T04:06:24.978Z,9.50
2023-04-18T04:06:57.974Z,9.50
2023-04-18T04:07:29.759Z,9.50
2023-04-18T04:08:02.524Z,9.50
2023-04-18T04:08:34.516Z,9.50
2023-04-18T04:09:06.323Z,9.60
2023-04-18T04:09:38.225Z,9.60
2023-04-18T04:10:11.583Z,9.60
2023-04-18T04:10:43.494Z,9.60
2023-04-18T04:11:17.460Z,9.60
2023-04-18T04:11:50.591Z,9.60
2023-04-18T04:12:22.497Z,9.60
2023-04-18T04:12:54.267Z,9.50
2023-04-18T04:13:27.123Z,9.50
2023-04-18T04:13:58.913Z,9.50
2023-04-18T04:14:30.736Z,9.50
2023-04-18T04:15:03.567Z,9.50
2023-04-18T04:15:37.335Z,9.50
2023-04-18T04:16:09.279Z,9.50
2023-04-18T04:16:42.145Z,9.50
2023-04-18T04:17:14.062Z,9.50
2023-04-18T04:17:46.011Z,9.50
2023-04-18T04:18:18.895Z,9.50
2023-04-18T04:18:50.685Z,9.40
2023-04-18T04:19:22.489Z,9.40
2023-04-18T04:19:55.350Z,9.40
2023-04-18T04:20:27.693Z,9.50
2023-04-18T04:20:59.942Z,9.50
2023-04-18T04:21:32.691Z,9.50
2023-04-18T04:22:04.482Z,9.50
2023-04-18T04:22:37.332Z,9.50
2023-04-18T04:23:10.072Z,9.50
2023-04-18T04:23:42.364Z,9.50
2023-04-18T04:24:14.346Z,9.50
2023-04-18T04:24:47.491Z,9.50
2023-04-18T04:25:19.995Z,9.50
2023-04-18T04:25:52.937Z,9.50
2023-04-18T04:26:27.561Z,9.50
2023-04-18T04:26:59.835Z,9.50
2023-04-18T04:27:33.947Z,9.50
2023-04-18T04:28:08.066Z,9.50
2023-04-18T04:28:40.014Z,9.50
2023-04-18T04:29:13.698Z,9.50
2023-04-18T04:29:46.498Z,9.60
2023-04-18T04:30:18.296Z,9.60
2023-04-18T04:30:50.730Z,9.60
2023-04-18T04:31:23.558Z,9.60
2023-04-18T04:31:55.580Z,9.70
2023-04-18T04:32:28.327Z,9.60
2023-04-18T04:33:01.603Z,9.60
2023-04-18T04:33:33.749Z,9.60
2023-04-18T04:34:06.168Z,9.60
2023-04-18T04:34:41.139Z,9.60
2023-04-18T04:35:12.932Z,9.60
2023-04-18T04:35:44.866Z,9.50
2023-04-18T04:36:18.944Z,9.60
2023-04-18T04:36:51.137Z,9.50
2023-04-18T04:37:23.659Z,9.50
2023-04-18T04:37:56.429Z,9.50
2023-04-18T04:38:30.706Z,9.50
2023-04-18T04:39:04.102Z,9.50
2023-04-18T04:39:36.878Z,9.50
2023-04-18T04:40:10.096Z,9.40
2023-04-18T04:40:42.411Z,9.40
2023-04-18T04:41:15.261Z,9.30
2023-04-18T04:41:48.892Z,9.30
2023-04-18T04:42:20.722Z,9.30
2023-04-18T04:42:54.278Z,9.30
2023-04-18T04:43:28.606Z,9.40
2023-04-18T04:44:01.672Z,9.40
2023-04-18T04:44:35.572Z,9.40
2023-04-18T04:45:09.271Z,9.50
2023-04-18T04:45:41.520Z,9.40
2023-04-18T04:46:15.376Z,9.40
2023-04-18T04:46:47.816Z,9.50
2023-04-18T04:47:19.638Z,9.50
2023-04-18T04:47:52.485Z,9.50
2023-04-18T04:48:24.924Z,9.50
2023-04-18T04:48:56.762Z,9.50
2023-04-18T04:49:29.566Z,9.50
2023-04-18T04:50:01.426Z,9.50
2023-04-18T04:50:34.733Z,9.50
2023-04-18T04:51:07.529Z,9.50
2023-04-18T04:51:40.049Z,9.50
2023-04-18T04:52:11.911Z,9.50
2023-04-18T04:52:44.745Z,9.50
2023-04-18T04:53:16.618Z,9.50
2023-04-18T04:53:48.423Z,9.50
2023-04-18T04:54:21.191Z,9.50
2023-04-18T04:54:53.007Z,9.50
2023-04-18T04:55:24.826Z,9.60
2023-04-18T04:55:58.120Z,9.50
2023-04-18T04:56:29.988Z,9.60
2023-04-18T04:57:04.223Z,9.60
2023-04-18T04:57:37.127Z,9.60
2023-04-18T04:58:08.979Z,9.60
2023-04-18T04:58:40.836Z,9.60
2023-04-18T04:59:14.027Z,9.50
2023-04-18T04:59:45.828Z,9.50
2023-04-18T05:00:20.758Z,9.40
2023-04-18T05:00:53.918Z,9.30
2023-04-18T05:01:25.947Z,9.30
2023-04-18T05:01:57.829Z,9.50
2023-04-18T05:02:30.919Z,9.30
2023-04-18T05:03:03.513Z,9.30
2023-04-18T05:03:36.419Z,9.30
2023-04-18T05:04:09.563Z,9.30
2023-04-18T05:04:41.520Z,9.30
2023-04-18T05:05:13.667Z,9.30
2023-04-18T05:05:46.616Z,9.40
2023-04-18T05:06:20.639Z,9.40
2023-04-18T05:06:52.797Z,9.40
2023-04-18T05:07:25.679Z,9.40
2023-04-18T05:07:57.511Z,9.30
2023-04-18T05:08:29.315Z,9.30
2023-04-18T05:09:02.111Z,9.30
2023-04-18T05:09:33.943Z,9.30
2023-04-18T05:10:07.135Z,9.30
2023-04-18T05:10:39.063Z,9.30
2023-04-18T05:11:10.851Z,9.30
2023-04-18T05:11:43.683Z,9.30
2023-04-18T05:12:16.947Z,9.30
2023-04-18T05:12:48.762Z,9.40
2023-04-18T05:13:21.562Z,9.40
2023-04-18T05:13:53.463Z,9.40
2023-04-18T05:14:26.292Z,9.50
2023-04-18T05:14:58.101Z,9.50
2023-04-18T05:15:30.573Z,9.40
2023-04-18T05:16:03.565Z,9.50
2023-04-18T05:16:35.750Z,9.50
2023-04-18T05:17:08.625Z,9.50
2023-04-18T05:17:40.617Z,9.50
2023-04-18T05:18:14.073Z,9.50
2023-04-18T05:18:46.965Z,9.60
2023-04-18T05:19:18.826Z,9.60
2023-04-18T05:19:51.801Z,9.60
2023-04-18T05:20:23.752Z,9.60
2023-04-18T05:20:55.839Z,9.50
2023-04-18T05:21:28.840Z,9.60
2023-04-18T05:22:00.719Z,9.60
2023-04-18T05:22:32.600Z,9.60
2023-04-18T05:23:05.371Z,9.60
2023-04-18T05:23:37.383Z,9.60
2023-04-18T05:24:09.602Z,9.60
2023-04-18T05:24:42.401Z,9.50
2023-04-18T05:25:14.393Z,9.40
2023-04-18T05:25:46.306Z,9.40
2023-04-18T05:26:19.658Z,9.40
2023-04-18T05:26:51.649Z,9.40
2023-04-18T05:27:25.089Z,9.40
2023-04-18T05:27:57.983Z,9.40
2023-04-18T05:28:29.864Z,9.40
2023-04-18T05:29:01.746Z,9.40
2023-04-18T05:29:34.666Z,9.30
2023-04-18T05:30:07.701Z,9.30
2023-04-18T05:30:40.199Z,9.20
2023-04-18T05:31:13.121Z,9.20
2023-04-18T05:31:44.986Z,9.20
2023-04-18T05:32:16.907Z,9.20
2023-04-18T05:32:49.714Z,9.20
2023-04-18T05:33:21.555Z,9.30
2023-04-18T05:33:54.358Z,9.20
2023-04-18T05:34:26.172Z,9.30
2023-04-18T05:34:57.980Z,9.30
2023-04-18T05:35:31.206Z,9.30
2023-04-18T05:36:03.139Z,9.30
2023-04-18T05:36:36.100Z,9.50
2023-04-18T05:37:07.977Z,9.40
2023-04-18T05:37:39.832Z,9.40
2023-04-18T05:38:12.603Z,9.40
2023-04-18T05:38:44.445Z,9.40
2023-04-18T05:39:16.727Z,9.40
2023-04-18T05:39:49.554Z,9.40
2023-04-18T05:40:21.492Z,9.30
2023-04-18T05:40:55.460Z,9.40
2023-04-18T05:41:28.253Z,9.40
2023-04-18T05:42:00.664Z,9.40
2023-04-18T05:42:33.926Z,9.40
2023-04-18T05:43:06.728Z,9.40
2023-04-18T05:43:39.020Z,9.40
2023-04-18T05:44:10.921Z,9.50
2023-04-18T05:44:43.732Z,9.50
2023-04-18T05:45:15.700Z,9.50
2023-04-18T05:45:48.121Z,9.50
2023-04-18T05:46:21.053Z,9.40
2023-04-18T05:46:52.921Z,9.40
2023-04-18T05:47:28.431Z,9.30
2023-04-18T05:48:01.580Z,9.30
2023-04-18T05:48:33.461Z,9.30
2023-04-18T05:49:05.252Z,9.40
2023-04-18T05:49:38.005Z,9.40
2023-04-18T05:50:10.353Z,9.40
2023-04-18T05:50:42.251Z,9.40
2023-04-18T05:51:15.094Z,9.50
2023-04-18T05:51:49.658Z,9.40
2023-04-18T05:52:21.698Z,9.40
2023-04-18T05:52:54.483Z,9.40
2023-04-18T05:53:26.398Z,9.40
2023-04-18T05:53:58.189Z,9.40
2023-04-18T05:54:31.048Z,9.50
2023-04-18T05:55:02.974Z,9.50
2023-04-18T05:55:35.800Z,9.50
2023-04-18T05:56:07.672Z,9.50
2023-04-18T05:56:40.373Z,9.40
2023-04-18T05:57:13.188Z,9.40
2023-04-18T05:57:46.349Z,9.40
2023-04-18T05:58:18.259Z,9.40
2023-04-18T05:58:51.324Z,9.40
2023-04-18T05:59:23.184Z,9.40
2023-04-18T05:59:56.079Z,9.50
2023-04-18T06:00:28.014Z,9.50
2023-04-18T06:00:59.826Z,9.60
2023-04-18T06:01:33.430Z,9.60
2023-04-18T06:02:05.548Z,9.60
2023-04-18T06:02:37.475Z,9.70
2023-04-18T06:03:11.325Z,9.70
2023-04-18T06:03:43.789Z,9.80
2023-04-18T06:04:16.230Z,9.80
2023-04-18T06:04:49.810Z,9.80
2023-04-18T06:05:22.019Z,9.90
2023-04-18T06:05:55.124Z,9.90
2023-04-18T06:06:27.535Z,9.90
2023-04-18T06:06:59.436Z,9.90
2023-04-18T06:07:32.324Z,9.90
2023-04-18T06:08:04.203Z,10.00
2023-04-18T06:08:37.016Z,10.00
2023-04-18T06:09:08.851Z,10.00
2023-04-18T06:09:40.682Z,10.00
2023-04-18T06:10:13.636Z,9.90
2023-04-18T06:10:45.532Z,9.90
2023-04-18T06:11:19.990Z,9.90
2023-04-18T06:11:52.867Z,9.90
2023-04-18T06:12:24.735Z,9.90
2023-04-18T06:12:57.898Z,9.90
2023-04-18T06:13:30.686Z,9.90
2023-04-18T06:14:03.034Z,9.90
2023-04-18T06:14:34.893Z,9.90
2023-04-18T06:15:09.439Z,9.90
2023-04-18T06:15:41.339Z,9.90
2023-04-18T06:16:14.444Z,9.90
2023-04-18T06:16:46.275Z,9.90
2023-04-18T06:17:18.160Z,9.90
2023-04-18T06:17:51.508Z,9.80
2023-04-18T06:18:23.398Z,9.90
2023-04-18T06:18:55.247Z,9.90
2023-04-18T06:19:28.075Z,9.90
2023-04-18T06:19:59.919Z,9.90
2023-04-18T06:20:31.745Z,9.90
2023-04-18T06:21:04.640Z,9.90
2023-04-18T06:21:36.476Z,9.90
2023-04-18T06:22:09.230Z,9.90
2023-04-18T06:22:41.052Z,9.90
2023-04-18T06:23:13.868Z,9.90
2023-04-18T06:23:45.659Z,10.00
2023-04-18T06:24:17.597Z,10.00
2023-04-18T06:24:50.455Z,10.10
2023-04-18T06:25:22.346Z,10.10
2023-04-18T06:25:54.308Z,10.20
2023-04-18T06:26:27.074Z,10.20
2023-04-18T06:26:59.059Z,10.20
2023-04-18T06:27:31.791Z,10.20
2023-04-18T06:28:06.548Z,10.20
2023-04-18T06:28:38.359Z,10.20
2023-04-18T06:29:10.383Z,10.30
2023-04-18T06:29:44.087Z,10.30
2023-04-18T06:30:16.116Z,10.30
2023-04-18T06:30:49.011Z,10.30
2023-04-18T06:31:21.188Z,10.30
2023-04-18T06:31:54.097Z,10.30
2023-04-18T06:32:26.145Z,10.30
2023-04-18T06:32:59.031Z,10.20
2023-04-18T06:33:31.033Z,10.30
2023-04-18T06:34:03.039Z,10.30
2023-04-18T06:34:38.088Z,10.40
2023-04-18T06:35:10.339Z,10.40
2023-04-18T06:35:43.390Z,10.30
2023-04-18T06:36:15.507Z,10.30
2023-04-18T06:36:49.260Z,10.30
2023-04-18T06:37:21.148Z,10.20
2023-04-18T06:37:52.962Z,10.30
2023-04-18T06:38:26.098Z,10.20
2023-04-18T06:38:57.968Z,10.20
2023-04-18T06:39:31.007Z,10.20
2023-04-18T06:40:02.962Z,10.20
2023-04-18T06:40:35.016Z,10.20
2023-04-18T06:41:07.775Z,10.20
2023-04-18T06:41:39.612Z,10.20
2023-04-18T06:42:11.473Z,10.20
2023-04-18T06:42:44.489Z,10.20
2023-04-18T06:43:17.629Z,10.20
2023-04-18T06:44:02.119Z,10.20
2023-04-18T06:44:36.615Z,10.20
2023-04-18T06:45:10.669Z,10.30
2023-04-18T06:45:42.556Z,10.40
2023-04-18T06:46:15.996Z,10.40
2023-04-18T06:46:48.618Z,10.50
2023-04-18T06:47:20.533Z,10.50
2023-04-18T06:47:53.376Z,10.60
2023-04-18T06:48:25.279Z,10.60
2023-04-18T06:48:58.091Z,10.70
2023-04-18T06:49:30.024Z,10.70
2023-04-18T06:50:02.854Z,10.70
2023-04-18T06:50:34.733Z,10.70
2023-04-18T06:51:06.654Z,10.70
2023-04-18T06:51:39.409Z,10.70
2023-04-18T06:52:11.383Z,10.70
2023-04-18T06:52:45.526Z,10.80
2023-04-18T06:53:17.415Z,10.80
2023-04-18T06:53:52.504Z,10.80
2023-04-18T06:54:25.486Z,10.80
2023-04-18T06:54:57.322Z,10.80
2023-04-18T06:55:30.647Z,10.80
2023-04-18T06:56:02.614Z,10.80
2023-04-18T06:56:36.384Z,10.80
2023-04-18T06:57:09.728Z,10.70
2023-04-18T06:57:42.432Z,10.70
2023-04-18T06:58:16.668Z,10.70
2023-04-18T06:58:51.569Z,10.70
2023-04-18T06:59:24.334Z,10.80
2023-04-18T06:59:56.172Z,10.70
2023-04-18T07:00:29.067Z,10.70
2023-04-18T07:01:00.898Z,10.70
2023-04-18T07:01:33.178Z,10.70
2023-04-18T07:02:06.167Z,10.70
2023-04-18T07:02:39.427Z,10.60
2023-04-18T07:03:13.297Z,10.70
2023-04-18T07:03:46.566Z,10.70
2023-04-18T07:04:18.875Z,10.70
2023-04-18T07:04:52.044Z,10.70
2023-04-18T07:05:23.851Z,10.70
2023-04-18T07:05:55.763Z,10.70
2023-04-18T07:06:28.564Z,10.80
2023-04-18T07:07:01.310Z,10.80
2023-04-18T07:07:35.264Z,10.80
2023-04-18T07:08:07.803Z,10.80
2023-04-18T07:08:40.672Z,10.90
2023-04-18T07:09:12.561Z,10.80
2023-04-18T07:09:45.290Z,10.90